sensor_id;sensor_type;location;lat;lon;timestamp;temperature;humidity
35559;DHT22;21661;50.794;-1.066;2023-02-12T00:00:42;9.70;99.90
35559;DHT22;21661;50.794;-1.066;2023-02-12T00:03:08;9.70;99.90
35559;DHT22;21661;50.794;-1.066;2023-02-12T00:05:36;9.70;99.90
35559;DHT22;21661;50.794;-1.066;2023-02-12T00:08:02;9.60;99.90
35559;DHT22;21661;50.794;-1.066;2023-02-12T00:10:28;9.60;99.90
35559;DHT22;21661;50.794;-1.066;2023-02-12T00:12:53;9.70;99.90
35559;DHT22;21661;50.794;-1.066;2023-02-12T00:15:20;9.70;99.90
35559;DHT22;21661;50.794;-1.066;2023-02-12T00:17:45;9.80;99.90
35559;DHT22;21661;50.794;-1.066;2023-02-12T00:20:11;9.70;99.90
35559;DHT22;21661;50.794;-1.066;2023-02-12T00:22:37;9.70;99.90
35559;DHT22;21661;50.794;-1.066;2023-02-12T00:25:03;9.70;99.90
35559;DHT22;21661;50.794;-1.066;2023-02-12T00:27:32;9.70;99.90
35559;DHT22;21661;50.794;-1.066;2023-02-12T00:29:57;9.70;99.90
35559;DHT22;21661;50.794;-1.066;2023-02-12T00:32:23;9.70;99.90
35559;DHT22;21661;50.794;-1.066;2023-02-12T00:34:51;9.70;99.90
35559;DHT22;21661;50.794;-1.066;2023-02-12T00:37:17;9.70;99.90
35559;DHT22;21661;50.794;-1.066;2023-02-12T00:39:43;9.70;99.90
35559;DHT22;21661;50.794;-1.066;2023-02-12T00:42:09;9.60;99.90
35559;DHT22;21661;50.794;-1.066;2023-02-12T00:44:34;9.60;99.90
35559;DHT22;21661;50.794;-1.066;2023-02-12T00:47:00;9.60;99.90
35559;DHT22;21661;50.794;-1.066;2023-02-12T00:49:29;9.60;99.90
35559;DHT22;21661;50.794;-1.066;2023-02-12T00:51:59;9.60;99.90
35559;DHT22;21661;50.794;-1.066;2023-02-12T00:54:25;9.60;99.90
35559;DHT22;21661;50.794;-1.066;2023-02-12T00:56:51;9.60;99.90
35559;DHT22;21661;50.794;-1.066;2023-02-12T00:59:17;9.60;99.90
35559;DHT22;21661;50.794;-1.066;2023-02-12T01:01:42;9.60;99.90
35559;DHT22;21661;50.794;-1.066;2023-02-12T01:04:08;9.50;99.90
35559;DHT22;21661;50.794;-1.066;2023-02-12T01:06:33;9.50;99.90
35559;DHT22;21661;50.794;-1.066;2023-02-12T01:08:59;9.50;99.90
35559;DHT22;21661;50.794;-1.066;2023-02-12T01:11:26;9.50;99.90
35559;DHT22;21661;50.794;-1.066;2023-02-12T01:13:52;9.50;99.90
35559;DHT22;21661;50.794;-1.066;2023-02-12T01:16:22;9.50;99.90
35559;DHT22;21661;50.794;-1.066;2023-02-12T01:18:49;9.60;99.90
35559;DHT22;21661;50.794;-1.066;2023-02-12T01:21:17;9.50;99.90
35559;DHT22;21661;50.794;-1.066;2023-02-12T01:23:44;9.50;99.90
35559;DHT22;21661;50.794;-1.066;2023-02-12T01:26:11;9.50;99.90
35559;DHT22;21661;50.794;-1.066;2023-02-12T01:28:38;9.50;99.90
35559;DHT22;21661;50.794;-1.066;2023-02-12T01:31:19;9.50;99.90
35559;DHT22;21661;50.794;-1.066;2023-02-12T01:33:52;9.50;99.90
35559;DHT22;21661;50.794;-1.066;2023-02-12T01:36:19;9.50;99.90
35559;DHT22;21661;50.794;-1.066;2023-02-12T01:38:44;9.50;99.90
35559;DHT22;21661;50.794;-1.066;2023-02-12T01:41:16;9.50;99.90
35559;DHT22;21661;50.794;-1.066;2023-02-12T01:43:43;9.50;99.90
35559;DHT22;21661;50.794;-1.066;2023-02-12T01:46:12;9.40;99.90
35559;DHT22;21661;50.794;-1.066;2023-02-12T01:48:42;9.40;99.90
35559;DHT22;21661;50.794;-1.066;2023-02-12T01:51:12;9.50;99.90
35559;DHT22;21661;50.794;-1.066;2023-02-12T01:53:48;9.50;99.90
35559;DHT22;21661;50.794;-1.066;2023-02-12T01:56:15;9.50;99.90
35559;DHT22;21661;50.794;-1.066;2023-02-12T01:58:44;9.50;99.90
35559;DHT22;21661;50.794;-1.066;2023-02-12T02:01:14;9.40;99.90
35559;DHT22;21661;50.794;-1.066;2023-02-12T02:03:44;9.40;99.90
35559;DHT22;21661;50.794;-1.066;2023-02-12T02:06:15;9.50;99.90
35559;DHT22;21661;50.794;-1.066;2023-02-12T02:08:42;9.40;99.90
35559;DHT22;21661;50.794;-1.066;2023-02-12T02:11:08;9.50;99.90
35559;DHT22;21661;50.794;-1.066;2023-02-12T02:13:55;9.50;99.90
35559;DHT22;21661;50.794;-1.066;2023-02-12T02:16:44;9.50;99.90
35559;DHT22;21661;50.794;-1.066;2023-02-12T02:19:27;9.50;99.90
35559;DHT22;21661;50.794;-1.066;2023-02-12T02:22:06;9.50;99.90
35559;DHT22;21661;50.794;-1.066;2023-02-12T02:27:39;9.50;99.90
35559;DHT22;21661;50.794;-1.066;2023-02-12T02:33:05;9.50;99.90
35559;DHT22;21661;50.794;-1.066;2023-02-12T02:35:43;9.60;99.90
35559;DHT22;21661;50.794;-1.066;2023-02-12T02:38:19;9.50;99.90
35559;DHT22;21661;50.794;-1.066;2023-02-12T02:41:01;9.60;99.90
35559;DHT22;21661;50.794;-1.066;2023-02-12T02:43:34;9.50;99.90
35559;DHT22;21661;50.794;-1.066;2023-02-12T02:46:15;9.50;99.90
35559;DHT22;21661;50.794;-1.066;2023-02-12T02:48:45;9.60;99.90
35559;DHT22;21661;50.794;-1.066;2023-02-12T02:51:14;9.60;99.90
35559;DHT22;21661;50.794;-1.066;2023-02-12T02:54:04;9.60;99.90
35559;DHT22;21661;50.794;-1.066;2023-02-12T02:56:34;9.60;99.90
35559;DHT22;21661;50.794;-1.066;2023-02-12T02:59:11;9.60;99.90
35559;DHT22;21661;50.794;-1.066;2023-02-12T03:01:46;9.60;99.90
35559;DHT22;21661;50.794;-1.066;2023-02-12T03:04:38;9.50;99.90
35559;DHT22;21661;50.794;-1.066;2023-02-12T03:09:43;9.50;99.90
35559;DHT22;21661;50.794;-1.066;2023-02-12T03:12:20;9.50;99.90
35559;DHT22;21661;50.794;-1.066;2023-02-12T03:14:55;9.50;99.90
35559;DHT22;21661;50.794;-1.066;2023-02-12T03:17:33;9.60;99.90
35559;DHT22;21661;50.794;-1.066;2023-02-12T03:20:09;9.60;99.90
35559;DHT22;21661;50.794;-1.066;2023-02-12T03:22:39;9.60;99.90
35559;DHT22;21661;50.794;-1.066;2023-02-12T03:25:15;9.50;99.90
35559;DHT22;21661;50.794;-1.066;2023-02-12T03:27:49;9.50;99.90
35559;DHT22;21661;50.794;-1.066;2023-02-12T03:30:17;9.50;99.90
35559;DHT22;21661;50.794;-1.066;2023-02-12T03:32:56;9.50;99.90
35559;DHT22;21661;50.794;-1.066;2023-02-12T03:38:04;9.50;99.90
35559;DHT22;21661;50.794;-1.066;2023-02-12T03:40:38;9.50;99.90
35559;DHT22;21661;50.794;-1.066;2023-02-12T03:43:27;9.50;99.90
35559;DHT22;21661;50.794;-1.066;2023-02-12T03:46:02;9.50;99.90
35559;DHT22;21661;50.794;-1.066;2023-02-12T03:53:30;9.50;99.90
35559;DHT22;21661;50.794;-1.066;2023-02-12T03:56:03;9.50;99.90
35559;DHT22;21661;50.794;-1.066;2023-02-12T03:58:33;9.50;99.90
35559;DHT22;21661;50.794;-1.066;2023-02-12T04:01:00;9.50;99.90
35559;DHT22;21661;50.794;-1.066;2023-02-12T04:03:28;9.50;99.90
35559;DHT22;21661;50.794;-1.066;2023-02-12T04:05:53;9.50;99.90
35559;DHT22;21661;50.794;-1.066;2023-02-12T04:08:19;9.50;99.90
35559;DHT22;21661;50.794;-1.066;2023-02-12T04:11:13;9.50;99.90
35559;DHT22;21661;50.794;-1.066;2023-02-12T04:13:51;9.50;99.90
35559;DHT22;21661;50.794;-1.066;2023-02-12T04:16:34;9.50;99.90
35559;DHT22;21661;50.794;-1.066;2023-02-12T04:19:00;9.50;99.90
35559;DHT22;21661;50.794;-1.066;2023-02-12T04:27:19;9.40;99.90
35559;DHT22;21661;50.794;-1.066;2023-02-12T04:32:41;9.30;99.90
35559;DHT22;21661;50.794;-1.066;2023-02-12T04:37:50;9.30;99.90
35559;DHT22;21661;50.794;-1.066;2023-02-12T04:40:18;9.30;99.90
35559;DHT22;21661;50.794;-1.066;2023-02-12T04:42:47;9.30;99.90
35559;DHT22;21661;50.794;-1.066;2023-02-12T04:45:15;9.30;99.90
35559;DHT22;21661;50.794;-1.066;2023-02-12T04:47:41;9.30;99.90
35559;DHT22;21661;50.794;-1.066;2023-02-12T04:50:08;9.30;99.90
35559;DHT22;21661;50.794;-1.066;2023-02-12T04:52:33;9.30;99.90
35559;DHT22;21661;50.794;-1.066;2023-02-12T04:54:59;9.20;99.90
35559;DHT22;21661;50.794;-1.066;2023-02-12T04:57:25;9.30;99.90
35559;DHT22;21661;50.794;-1.066;2023-02-12T04:59:50;9.30;99.90
35559;DHT22;21661;50.794;-1.066;2023-02-12T05:02:16;9.30;99.90
35559;DHT22;21661;50.794;-1.066;2023-02-12T05:04:41;9.20;99.90
35559;DHT22;21661;50.794;-1.066;2023-02-12T05:07:07;9.30;99.90
35559;DHT22;21661;50.794;-1.066;2023-02-12T05:09:32;9.20;99.90
35559;DHT22;21661;50.794;-1.066;2023-02-12T05:11:58;9.20;99.90
35559;DHT22;21661;50.794;-1.066;2023-02-12T05:14:24;9.20;99.90
35559;DHT22;21661;50.794;-1.066;2023-02-12T05:16:50;9.20;99.90
35559;DHT22;21661;50.794;-1.066;2023-02-12T05:19:15;9.10;99.90
35559;DHT22;21661;50.794;-1.066;2023-02-12T05:21:41;9.20;99.90
35559;DHT22;21661;50.794;-1.066;2023-02-12T05:24:07;9.10;99.90
35559;DHT22;21661;50.794;-1.066;2023-02-12T05:26:33;9.20;99.90
35559;DHT22;21661;50.794;-1.066;2023-02-12T05:28:59;9.20;99.90
35559;DHT22;21661;50.794;-1.066;2023-02-12T05:31:24;9.20;99.90
35559;DHT22;21661;50.794;-1.066;2023-02-12T05:33:50;9.30;99.90
35559;DHT22;21661;50.794;-1.066;2023-02-12T05:36:18;9.20;99.90
35559;DHT22;21661;50.794;-1.066;2023-02-12T05:38:44;9.30;99.90
35559;DHT22;21661;50.794;-1.066;2023-02-12T05:41:12;9.30;99.90
35559;DHT22;21661;50.794;-1.066;2023-02-12T05:43:39;9.30;99.90
35559;DHT22;21661;50.794;-1.066;2023-02-12T05:46:06;9.30;99.90
35559;DHT22;21661;50.794;-1.066;2023-02-12T05:48:32;9.20;99.90
35559;DHT22;21661;50.794;-1.066;2023-02-12T05:51:25;9.20;99.90
35559;DHT22;21661;50.794;-1.066;2023-02-12T05:53:56;9.20;99.90
35559;DHT22;21661;50.794;-1.066;2023-02-12T05:56:27;9.30;99.90
35559;DHT22;21661;50.794;-1.066;2023-02-12T05:58:58;9.20;99.90
35559;DHT22;21661;50.794;-1.066;2023-02-12T06:01:29;9.20;99.90
35559;DHT22;21661;50.794;-1.066;2023-02-12T06:03:54;9.20;99.90
35559;DHT22;21661;50.794;-1.066;2023-02-12T06:06:20;9.20;99.90
35559;DHT22;21661;50.794;-1.066;2023-02-12T06:08:47;9.20;99.90
35559;DHT22;21661;50.794;-1.066;2023-02-12T06:11:13;9.20;99.90
35559;DHT22;21661;50.794;-1.066;2023-02-12T06:13:40;9.20;99.90
35559;DHT22;21661;50.794;-1.066;2023-02-12T06:16:06;9.20;99.90
35559;DHT22;21661;50.794;-1.066;2023-02-12T06:18:34;9.10;99.90
35559;DHT22;21661;50.794;-1.066;2023-02-12T06:21:02;9.20;99.90
35559;DHT22;21661;50.794;-1.066;2023-02-12T06:23:28;9.20;99.90
35559;DHT22;21661;50.794;-1.066;2023-02-12T06:25:57;9.20;99.90
35559;DHT22;21661;50.794;-1.066;2023-02-12T06:28:23;9.20;99.90
35559;DHT22;21661;50.794;-1.066;2023-02-12T06:30:48;9.20;99.90
35559;DHT22;21661;50.794;-1.066;2023-02-12T06:33:14;9.20;99.90
35559;DHT22;21661;50.794;-1.066;2023-02-12T06:35:39;9.30;99.90
35559;DHT22;21661;50.794;-1.066;2023-02-12T06:38:05;9.20;99.90
35559;DHT22;21661;50.794;-1.066;2023-02-12T06:40:32;9.20;99.90
35559;DHT22;21661;50.794;-1.066;2023-02-12T06:42:57;9.20;99.90
35559;DHT22;21661;50.794;-1.066;2023-02-12T06:45:23;9.20;99.90
35559;DHT22;21661;50.794;-1.066;2023-02-12T06:47:49;9.20;99.90
35559;DHT22;21661;50.794;-1.066;2023-02-12T06:50:14;9.20;99.90
35559;DHT22;21661;50.794;-1.066;2023-02-12T06:52:40;9.10;99.90
35559;DHT22;21661;50.794;-1.066;2023-02-12T06:55:06;9.10;99.90
35559;DHT22;21661;50.794;-1.066;2023-02-12T06:57:34;9.10;99.90
35559;DHT22;21661;50.794;-1.066;2023-02-12T07:00:00;9.10;99.90
35559;DHT22;21661;50.794;-1.066;2023-02-12T07:02:25;9.10;99.90
35559;DHT22;21661;50.794;-1.066;2023-02-12T07:04:51;9.10;99.90
35559;DHT22;21661;50.794;-1.066;2023-02-12T07:07:16;9.10;99.90
35559;DHT22;21661;50.794;-1.066;2023-02-12T07:09:42;9.00;99.90
35559;DHT22;21661;50.794;-1.066;2023-02-12T07:12:07;9.00;99.90
35559;DHT22;21661;50.794;-1.066;2023-02-12T07:14:33;9.00;99.90
35559;DHT22;21661;50.794;-1.066;2023-02-12T07:16:59;9.00;99.90
35559;DHT22;21661;50.794;-1.066;2023-02-12T07:19:28;9.10;99.90
35559;DHT22;21661;50.794;-1.066;2023-02-12T07:21:54;9.00;99.90
35559;DHT22;21661;50.794;-1.066;2023-02-12T07:24:19;9.10;99.90
35559;DHT22;21661;50.794;-1.066;2023-02-12T07:26:48;9.10;99.90
35559;DHT22;21661;50.794;-1.066;2023-02-12T07:29:14;9.00;99.90
35559;DHT22;21661;50.794;-1.066;2023-02-12T07:31:40;9.00;99.90
35559;DHT22;21661;50.794;-1.066;2023-02-12T07:34:06;9.00;99.90
35559;DHT22;21661;50.794;-1.066;2023-02-12T07:36:32;9.00;99.90
35559;DHT22;21661;50.794;-1.066;2023-02-12T07:38:58;9.00;99.90
35559;DHT22;21661;50.794;-1.066;2023-02-12T07:41:29;9.00;99.90
35559;DHT22;21661;50.794;-1.066;2023-02-12T07:43:56;9.10;99.90
35559;DHT22;21661;50.794;-1.066;2023-02-12T07:46:30;9.10;99.90
35559;DHT22;21661;50.794;-1.066;2023-02-12T07:48:58;9.00;99.90
35559;DHT22;21661;50.794;-1.066;2023-02-12T07:51:25;9.00;99.90
35559;DHT22;21661;50.794;-1.066;2023-02-12T07:53:51;9.10;99.90
35559;DHT22;21661;50.794;-1.066;2023-02-12T07:56:19;9.10;99.90
35559;DHT22;21661;50.794;-1.066;2023-02-12T07:58:47;9.10;99.90
35559;DHT22;21661;50.794;-1.066;2023-02-12T08:01:17;9.10;99.90
35559;DHT22;21661;50.794;-1.066;2023-02-12T08:03:47;9.20;99.90
35559;DHT22;21661;50.794;-1.066;2023-02-12T08:06:25;9.10;99.90
35559;DHT22;21661;50.794;-1.066;2023-02-12T08:08:52;9.10;99.90
35559;DHT22;21661;50.794;-1.066;2023-02-12T08:11:19;9.10;99.90
35559;DHT22;21661;50.794;-1.066;2023-02-12T08:13:45;9.20;99.90
35559;DHT22;21661;50.794;-1.066;2023-02-12T08:16:16;9.20;99.90
35559;DHT22;21661;50.794;-1.066;2023-02-12T08:18:42;9.20;99.90
35559;DHT22;21661;50.794;-1.066;2023-02-12T08:21:13;9.20;99.90
35559;DHT22;21661;50.794;-1.066;2023-02-12T08:23:39;9.20;99.90
35559;DHT22;21661;50.794;-1.066;2023-02-12T08:26:08;9.20;99.90
35559;DHT22;21661;50.794;-1.066;2023-02-12T08:28:35;9.30;99.90
35559;DHT22;21661;50.794;-1.066;2023-02-12T08:31:03;9.30;99.90
35559;DHT22;21661;50.794;-1.066;2023-02-12T08:33:29;9.30;99.90
35559;DHT22;21661;50.794;-1.066;2023-02-12T08:36:09;9.30;99.90
35559;DHT22;21661;50.794;-1.066;2023-02-12T08:38:36;9.30;99.90
35559;DHT22;21661;50.794;-1.066;2023-02-12T08:41:10;9.30;99.90
35559;DHT22;21661;50.794;-1.066;2023-02-12T08:43:37;9.30;99.90
35559;DHT22;21661;50.794;-1.066;2023-02-12T08:46:08;9.30;99.90
35559;DHT22;21661;50.794;-1.066;2023-02-12T08:48:34;9.30;99.90
35559;DHT22;21661;50.794;-1.066;2023-02-12T08:53:37;9.30;99.90
35559;DHT22;21661;50.794;-1.066;2023-02-12T08:56:04;9.40;99.90
35559;DHT22;21661;50.794;-1.066;2023-02-12T08:58:30;9.30;99.90
35559;DHT22;21661;50.794;-1.066;2023-02-12T09:00:56;9.20;99.90
35559;DHT22;21661;50.794;-1.066;2023-02-12T09:03:22;9.30;99.90
35559;DHT22;21661;50.794;-1.066;2023-02-12T09:05:48;9.20;99.90
35559;DHT22;21661;50.794;-1.066;2023-02-12T09:08:13;9.30;99.90
35559;DHT22;21661;50.794;-1.066;2023-02-12T09:10:40;9.20;99.90
35559;DHT22;21661;50.794;-1.066;2023-02-12T09:13:10;9.20;99.90
35559;DHT22;21661;50.794;-1.066;2023-02-12T09:15:40;9.20;99.90
35559;DHT22;21661;50.794;-1.066;2023-02-12T09:18:06;9.10;99.90
35559;DHT22;21661;50.794;-1.066;2023-02-12T09:20:32;9.10;99.90
35559;DHT22;21661;50.794;-1.066;2023-02-12T09:22:58;9.10;99.90
35559;DHT22;21661;50.794;-1.066;2023-02-12T09:25:24;9.20;99.90
35559;DHT22;21661;50.794;-1.066;2023-02-12T09:27:50;9.20;99.90
35559;DHT22;21661;50.794;-1.066;2023-02-12T09:30:16;9.10;99.90
35559;DHT22;21661;50.794;-1.066;2023-02-12T09:32:41;9.20;99.90
35559;DHT22;21661;50.794;-1.066;2023-02-12T09:35:07;9.10;99.90
35559;DHT22;21661;50.794;-1.066;2023-02-12T09:37:33;9.20;99.90
35559;DHT22;21661;50.794;-1.066;2023-02-12T09:39:58;9.10;99.90
35559;DHT22;21661;50.794;-1.066;2023-02-12T09:45:22;9.20;99.90
35559;DHT22;21661;50.794;-1.066;2023-02-12T09:48:14;9.10;99.90
35559;DHT22;21661;50.794;-1.066;2023-02-12T09:50:53;9.10;99.90
35559;DHT22;21661;50.794;-1.066;2023-02-12T09:53:23;9.10;99.90
35559;DHT22;21661;50.794;-1.066;2023-02-12T09:55:49;9.10;99.90
35559;DHT22;21661;50.794;-1.066;2023-02-12T09:58:38;9.20;99.90
35559;DHT22;21661;50.794;-1.066;2023-02-12T10:01:17;9.10;99.90
35559;DHT22;21661;50.794;-1.066;2023-02-12T10:03:44;9.10;99.90
35559;DHT22;21661;50.794;-1.066;2023-02-12T10:06:14;9.20;99.90
35559;DHT22;21661;50.794;-1.066;2023-02-12T10:08:56;9.20;99.90
35559;DHT22;21661;50.794;-1.066;2023-02-12T10:28:10;9.30;99.90
35559;DHT22;21661;50.794;-1.066;2023-02-12T10:31:03;9.30;99.90
35559;DHT22;21661;50.794;-1.066;2023-02-12T10:33:34;9.30;99.90
35559;DHT22;21661;50.794;-1.066;2023-02-12T10:38:59;9.30;99.90
35559;DHT22;21661;50.794;-1.066;2023-02-12T10:41:28;9.30;99.90
35559;DHT22;21661;50.794;-1.066;2023-02-12T10:43:54;9.30;99.90
35559;DHT22;21661;50.794;-1.066;2023-02-12T10:46:20;9.30;99.90
35559;DHT22;21661;50.794;-1.066;2023-02-12T10:48:49;9.30;99.90
35559;DHT22;21661;50.794;-1.066;2023-02-12T10:56:55;9.30;99.90
35559;DHT22;21661;50.794;-1.066;2023-02-12T10:59:23;9.30;99.90
35559;DHT22;21661;50.794;-1.066;2023-02-12T11:01:49;9.40;99.90
35559;DHT22;21661;50.794;-1.066;2023-02-12T11:04:27;9.40;99.90
35559;DHT22;21661;50.794;-1.066;2023-02-12T11:07:04;9.40;99.90
35559;DHT22;21661;50.794;-1.066;2023-02-12T11:09:37;9.30;99.90
35559;DHT22;21661;50.794;-1.066;2023-02-12T11:15:14;9.50;99.90
35559;DHT22;21661;50.794;-1.066;2023-02-12T11:17:53;9.50;99.90
35559;DHT22;21661;50.794;-1.066;2023-02-12T11:20:21;9.50;99.90
35559;DHT22;21661;50.794;-1.066;2023-02-12T11:22:59;9.50;99.90
35559;DHT22;21661;50.794;-1.066;2023-02-12T11:25:28;9.50;99.90
35559;DHT22;21661;50.794;-1.066;2023-02-12T11:28:16;9.50;99.90
35559;DHT22;21661;50.794;-1.066;2023-02-12T11:33:30;9.50;99.90
35559;DHT22;21661;50.794;-1.066;2023-02-12T11:36:00;9.50;99.90
35559;DHT22;21661;50.794;-1.066;2023-02-12T11:38:30;9.50;99.90
35559;DHT22;21661;50.794;-1.066;2023-02-12T11:41:01;9.50;99.90
35559;DHT22;21661;50.794;-1.066;2023-02-12T11:43:28;9.50;99.90
35559;DHT22;21661;50.794;-1.066;2023-02-12T11:45:55;9.50;99.90
35559;DHT22;21661;50.794;-1.066;2023-02-12T11:48:29;9.50;99.90
35559;DHT22;21661;50.794;-1.066;2023-02-12T11:50:57;9.50;99.90
35559;DHT22;21661;50.794;-1.066;2023-02-12T11:56:38;9.50;99.90
35559;DHT22;21661;50.794;-1.066;2023-02-12T11:58:47;9.50;99.90
35559;DHT22;21661;50.794;-1.066;2023-02-12T12:06:26;9.50;99.90
35559;DHT22;21661;50.794;-1.066;2023-02-12T12:09:03;9.40;99.90
35559;DHT22;21661;50.794;-1.066;2023-02-12T12:12:01;9.50;99.90
35559;DHT22;21661;50.794;-1.066;2023-02-12T12:14:32;9.40;99.90
35559;DHT22;21661;50.794;-1.066;2023-02-12T12:17:26;9.40;99.90
35559;DHT22;21661;50.794;-1.066;2023-02-12T12:20:20;9.40;99.90
35559;DHT22;21661;50.794;-1.066;2023-02-12T12:22:58;9.40;99.90
35559;DHT22;21661;50.794;-1.066;2023-02-12T12:28:38;9.20;99.90
35559;DHT22;21661;50.794;-1.066;2023-02-12T12:31:42;9.20;99.90
35559;DHT22;21661;50.794;-1.066;2023-02-12T12:53:17;9.20;99.90
35559;DHT22;21661;50.794;-1.066;2023-02-12T12:56:20;9.20;99.90
35559;DHT22;21661;50.794;-1.066;2023-02-12T12:59:01;9.30;99.90
35559;DHT22;21661;50.794;-1.066;2023-02-12T13:01:47;9.30;99.90
35559;DHT22;21661;50.794;-1.066;2023-02-12T13:04:40;9.20;99.90
35559;DHT22;21661;50.794;-1.066;2023-02-12T13:07:18;9.10;99.90
35559;DHT22;21661;50.794;-1.066;2023-02-12T13:15:30;9.20;99.90
35559;DHT22;21661;50.794;-1.066;2023-02-12T13:23:15;9.20;99.90
35559;DHT22;21661;50.794;-1.066;2023-02-12T13:26:06;9.20;99.90
35559;DHT22;21661;50.794;-1.066;2023-02-12T13:28:36;9.20;99.90
35559;DHT22;21661;50.794;-1.066;2023-02-12T13:31:06;9.20;99.90
35559;DHT22;21661;50.794;-1.066;2023-02-12T13:33:46;9.20;99.90
35559;DHT22;21661;50.794;-1.066;2023-02-12T13:36:13;9.20;99.90
35559;DHT22;21661;50.794;-1.066;2023-02-12T13:38:45;9.20;99.90
35559;DHT22;21661;50.794;-1.066;2023-02-12T13:41:12;9.20;99.90
35559;DHT22;21661;50.794;-1.066;2023-02-12T13:43:58;9.30;99.90
35559;DHT22;21661;50.794;-1.066;2023-02-12T13:46:33;9.30;99.90
35559;DHT22;21661;50.794;-1.066;2023-02-12T13:49:29;9.30;99.90
35559;DHT22;21661;50.794;-1.066;2023-02-12T13:52:49;9.40;99.90
35559;DHT22;21661;50.794;-1.066;2023-02-12T13:55:28;9.40;99.90
35559;DHT22;21661;50.794;-1.066;2023-02-12T13:57:51;9.40;99.90
35559;DHT22;21661;50.794;-1.066;2023-02-12T14:03:15;9.50;99.90
35559;DHT22;21661;50.794;-1.066;2023-02-12T14:05:41;9.50;99.90
35559;DHT22;21661;50.794;-1.066;2023-02-12T14:08:06;9.50;99.90
35559;DHT22;21661;50.794;-1.066;2023-02-12T14:11:12;9.50;99.90
35559;DHT22;21661;50.794;-1.066;2023-02-12T14:13:59;9.40;99.90
35559;DHT22;21661;50.794;-1.066;2023-02-12T14:21:58;9.40;99.90
35559;DHT22;21661;50.794;-1.066;2023-02-12T14:27:03;9.40;99.90
35559;DHT22;21661;50.794;-1.066;2023-02-12T14:29:30;9.30;99.90
35559;DHT22;21661;50.794;-1.066;2023-02-12T14:31:55;9.30;99.90
35559;DHT22;21661;50.794;-1.066;2023-02-12T14:36:47;9.20;99.90
35559;DHT22;21661;50.794;-1.066;2023-02-12T14:41:52;9.20;99.90
35559;DHT22;21661;50.794;-1.066;2023-02-12T14:49:27;9.20;99.90
35559;DHT22;21661;50.794;-1.066;2023-02-12T14:52:13;9.20;99.90
35559;DHT22;21661;50.794;-1.066;2023-02-12T14:54:56;9.20;99.90
35559;DHT22;21661;50.794;-1.066;2023-02-12T14:57:29;9.20;99.90
35559;DHT22;21661;50.794;-1.066;2023-02-12T15:05:21;9.20;99.90
35559;DHT22;21661;50.794;-1.066;2023-02-12T15:07:52;9.30;99.90
35559;DHT22;21661;50.794;-1.066;2023-02-12T15:10:29;9.20;99.90
35559;DHT22;21661;50.794;-1.066;2023-02-12T15:13:14;9.20;99.90
35559;DHT22;21661;50.794;-1.066;2023-02-12T15:15:49;9.20;99.90
35559;DHT22;21661;50.794;-1.066;2023-02-12T15:18:27;9.20;99.90
35559;DHT22;21661;50.794;-1.066;2023-02-12T15:21:03;9.30;99.90
35559;DHT22;21661;50.794;-1.066;2023-02-12T15:23:44;9.20;99.90
35559;DHT22;21661;50.794;-1.066;2023-02-12T15:26:18;9.20;99.90
35559;DHT22;21661;50.794;-1.066;2023-02-12T15:28:50;9.20;99.90
35559;DHT22;21661;50.794;-1.066;2023-02-12T15:31:19;9.20;99.90
35559;DHT22;21661;50.794;-1.066;2023-02-12T15:33:49;9.10;99.90
35559;DHT22;21661;50.794;-1.066;2023-02-12T15:36:20;9.10;99.90
35559;DHT22;21661;50.794;-1.066;2023-02-12T15:39:07;9.10;99.90
35559;DHT22;21661;50.794;-1.066;2023-02-12T15:41:34;9.10;99.90
35559;DHT22;21661;50.794;-1.066;2023-02-12T15:44:02;9.10;99.90
35559;DHT22;21661;50.794;-1.066;2023-02-12T15:46:28;9.00;99.90
35559;DHT22;21661;50.794;-1.066;2023-02-12T15:48:54;9.10;99.90
35559;DHT22;21661;50.794;-1.066;2023-02-12T15:51:37;9.20;99.90
35559;DHT22;21661;50.794;-1.066;2023-02-12T15:54:06;9.10;99.90
35559;DHT22;21661;50.794;-1.066;2023-02-12T15:56:33;9.20;99.90
35559;DHT22;21661;50.794;-1.066;2023-02-12T15:59:01;9.20;99.90
35559;DHT22;21661;50.794;-1.066;2023-02-12T16:01:29;9.10;99.90
35559;DHT22;21661;50.794;-1.066;2023-02-12T16:04:00;9.10;99.90
35559;DHT22;21661;50.794;-1.066;2023-02-12T16:06:28;9.10;99.90
35559;DHT22;21661;50.794;-1.066;2023-02-12T16:09:05;9.20;99.90
35559;DHT22;21661;50.794;-1.066;2023-02-12T16:11:32;9.10;99.90
35559;DHT22;21661;50.794;-1.066;2023-02-12T16:14:00;9.10;99.90
35559;DHT22;21661;50.794;-1.066;2023-02-12T16:16:50;9.10;99.90
35559;DHT22;21661;50.794;-1.066;2023-02-12T16:19:29;9.10;99.90
35559;DHT22;21661;50.794;-1.066;2023-02-12T16:22:00;9.00;99.90
35559;DHT22;21661;50.794;-1.066;2023-02-12T16:24:53;9.10;99.90
35559;DHT22;21661;50.794;-1.066;2023-02-12T16:27:28;9.10;99.90
35559;DHT22;21661;50.794;-1.066;2023-02-12T16:29:57;9.00;99.90
35559;DHT22;21661;50.794;-1.066;2023-02-12T16:35:02;9.10;99.90
35559;DHT22;21661;50.794;-1.066;2023-02-12T16:47:52;9.00;99.90
35559;DHT22;21661;50.794;-1.066;2023-02-12T16:50:27;9.10;99.90
35559;DHT22;21661;50.794;-1.066;2023-02-12T16:53:22;9.10;99.90
35559;DHT22;21661;50.794;-1.066;2023-02-12T16:55:48;9.20;99.90
35559;DHT22;21661;50.794;-1.066;2023-02-12T16:58:14;9.10;99.90
35559;DHT22;21661;50.794;-1.066;2023-02-12T17:00:39;9.20;99.90
35559;DHT22;21661;50.794;-1.066;2023-02-12T17:03:05;9.10;99.90
35559;DHT22;21661;50.794;-1.066;2023-02-12T17:05:31;9.10;99.90
35559;DHT22;21661;50.794;-1.066;2023-02-12T17:07:56;9.10;99.90
35559;DHT22;21661;50.794;-1.066;2023-02-12T17:10:22;9.10;99.90
35559;DHT22;21661;50.794;-1.066;2023-02-12T17:12:49;9.00;99.90
35559;DHT22;21661;50.794;-1.066;2023-02-12T17:15:29;9.10;99.90
35559;DHT22;21661;50.794;-1.066;2023-02-12T17:17:57;9.00;99.90
35559;DHT22;21661;50.794;-1.066;2023-02-12T17:20:23;9.10;99.90
35559;DHT22;21661;50.794;-1.066;2023-02-12T17:22:54;9.10;99.90
35559;DHT22;21661;50.794;-1.066;2023-02-12T17:25:21;9.10;99.90
35559;DHT22;21661;50.794;-1.066;2023-02-12T17:27:47;9.10;99.90
35559;DHT22;21661;50.794;-1.066;2023-02-12T17:30:18;9.10;99.90
35559;DHT22;21661;50.794;-1.066;2023-02-12T17:32:45;9.10;99.90
35559;DHT22;21661;50.794;-1.066;2023-02-12T17:35:10;9.00;99.90
35559;DHT22;21661;50.794;-1.066;2023-02-12T17:37:36;9.10;99.90
35559;DHT22;21661;50.794;-1.066;2023-02-12T17:40:02;9.00;99.90
35559;DHT22;21661;50.794;-1.066;2023-02-12T17:42:28;9.00;99.90
35559;DHT22;21661;50.794;-1.066;2023-02-12T17:44:53;9.00;99.90
35559;DHT22;21661;50.794;-1.066;2023-02-12T17:47:19;9.10;99.90
35559;DHT22;21661;50.794;-1.066;2023-02-12T17:49:44;9.10;99.90
35559;DHT22;21661;50.794;-1.066;2023-02-12T17:52:10;9.10;99.90
35559;DHT22;21661;50.794;-1.066;2023-02-12T17:54:36;9.00;99.90
35559;DHT22;21661;50.794;-1.066;2023-02-12T17:57:02;9.00;99.90
35559;DHT22;21661;50.794;-1.066;2023-02-12T17:59:27;9.10;99.90
35559;DHT22;21661;50.794;-1.066;2023-02-12T18:01:53;9.00;99.90
35559;DHT22;21661;50.794;-1.066;2023-02-12T18:04:19;9.00;99.90
35559;DHT22;21661;50.794;-1.066;2023-02-12T18:06:44;9.00;99.90
35559;DHT22;21661;50.794;-1.066;2023-02-12T18:09:10;9.00;99.90
35559;DHT22;21661;50.794;-1.066;2023-02-12T18:11:36;9.00;99.90
35559;DHT22;21661;50.794;-1.066;2023-02-12T18:14:04;9.00;99.90
35559;DHT22;21661;50.794;-1.066;2023-02-12T18:16:32;9.00;99.90